Terminal Aerodrome Forecast
Issued by NWS Detroit/Pontiac, MI

Home | Current Version | Previous Version | Text Only | Print | Product List | Glossary On
Versions: 1 2 3 4 5 6 7 8 9 10 11 12 13 14 15 16 17 18 19
747
FTUS43 KDTX 090527
TAFFNT
TAF
KFNT 090527Z 0906/1006 27007KT 6SM -SHSN SCT025 OVC045
     FM090700 30007KT 4SM -SHSN BR BKN015 OVC025
     FM091500 30014G20KT 3SM -SHSN BR OVC015
     FM092200 29012KT 1 1/2SM -SHSN BR OVC012=

USA.gov is the U.S. government's official web portal to all federal, state and local government web resources and services.